Terminal Aerodrome Forecast
Issued by NWS

Home | Current Version | Previous Version | Text Only | Print | Product List | Glossary On
Versions: 1 2 3 4 5 6 7 8 9 10 11 12 13 14 15
000
FTUS45 KRIW 242334
TAFCPR
TAF
KCPR 242334Z 2500/2524 20010KT P6SM FEW030 BKN080
     FM251000 22015KT P6SM SCT100 BKN150
     FM251700 24019G26KT P6SM SCT100 BKN150=

USA.gov is the U.S. government's official web portal to all federal, state and local government web resources and services.